sensor_id;sensor_type;location;lat;lon;timestamp;P1;durP1;ratioP1;P2;durP2;ratioP2
4686;SDS011;2357;47.316;-1.348;2022-08-16T00:01:24;14.00;;;6.77;;
4686;SDS011;2357;47.316;-1.348;2022-08-16T00:03:51;19.30;;;7.20;;
4686;SDS011;2357;47.316;-1.348;2022-08-16T00:06:18;13.50;;;7.37;;
4686;SDS011;2357;47.316;-1.348;2022-08-16T00:08:44;10.13;;;7.70;;
4686;SDS011;2357;47.316;-1.348;2022-08-16T00:11:10;8.00;;;7.20;;
4686;SDS011;2357;47.316;-1.348;2022-08-16T00:13:36;17.70;;;8.10;;
4686;SDS011;2357;47.316;-1.348;2022-08-16T00:16:02;19.10;;;8.67;;
4686;SDS011;2357;47.316;-1.348;2022-08-16T00:18:28;10.20;;;7.63;;
4686;SDS011;2357;47.316;-1.348;2022-08-16T00:20:53;13.80;;;7.43;;
4686;SDS011;2357;47.316;-1.348;2022-08-16T00:23:19;11.27;;;7.13;;
4686;SDS011;2357;47.316;-1.348;2022-08-16T00:25:45;10.43;;;8.10;;
4686;SDS011;2357;47.316;-1.348;2022-08-16T00:28:11;14.10;;;7.43;;
4686;SDS011;2357;47.316;-1.348;2022-08-16T00:30:37;13.97;;;7.80;;
4686;SDS011;2357;47.316;-1.348;2022-08-16T00:33:04;13.63;;;8.43;;
4686;SDS011;2357;47.316;-1.348;2022-08-16T00:35:31;9.50;;;8.57;;
4686;SDS011;2357;47.316;-1.348;2022-08-16T00:37:59;9.57;;;7.90;;
4686;SDS011;2357;47.316;-1.348;2022-08-16T00:40:33;15.00;;;7.93;;
4686;SDS011;2357;47.316;-1.348;2022-08-16T00:43:14;11.17;;;8.60;;
4686;SDS011;2357;47.316;-1.348;2022-08-16T00:48:41;13.10;;;8.50;;
4686;SDS011;2357;47.316;-1.348;2022-08-16T00:51:08;15.03;;;7.67;;
4686;SDS011;2357;47.316;-1.348;2022-08-16T00:53:35;11.57;;;9.27;;
4686;SDS011;2357;47.316;-1.348;2022-08-16T00:56:02;11.77;;;8.20;;
4686;SDS011;2357;47.316;-1.348;2022-08-16T00:58:34;10.13;;;8.17;;
4686;SDS011;2357;47.316;-1.348;2022-08-16T01:01:06;25.37;;;10.20;;
4686;SDS011;2357;47.316;-1.348;2022-08-16T01:03:32;15.90;;;7.40;;
4686;SDS011;2357;47.316;-1.348;2022-08-16T01:05:59;11.10;;;8.27;;
4686;SDS011;2357;47.316;-1.348;2022-08-16T01:08:26;12.50;;;8.30;;
4686;SDS011;2357;47.316;-1.348;2022-08-16T01:10:52;15.07;;;8.40;;
4686;SDS011;2357;47.316;-1.348;2022-08-16T01:13:23;15.17;;;8.47;;
4686;SDS011;2357;47.316;-1.348;2022-08-16T01:15:56;12.83;;;8.90;;
4686;SDS011;2357;47.316;-1.348;2022-08-16T01:18:32;15.97;;;9.30;;
4686;SDS011;2357;47.316;-1.348;2022-08-16T01:22:04;13.40;;;8.87;;
4686;SDS011;2357;47.316;-1.348;2022-08-16T01:24:13;12.43;;;9.20;;
4686;SDS011;2357;47.316;-1.348;2022-08-16T01:26:53;16.80;;;8.97;;
4686;SDS011;2357;47.316;-1.348;2022-08-16T01:29:28;17.63;;;8.33;;
4686;SDS011;2357;47.316;-1.348;2022-08-16T01:32:01;19.40;;;9.67;;
4686;SDS011;2357;47.316;-1.348;2022-08-16T01:34:27;11.85;;;7.68;;
4686;SDS011;2357;47.316;-1.348;2022-08-16T01:37:06;17.10;;;9.30;;
4686;SDS011;2357;47.316;-1.348;2022-08-16T01:39:35;16.47;;;9.20;;
4686;SDS011;2357;47.316;-1.348;2022-08-16T01:42:02;13.83;;;8.77;;
4686;SDS011;2357;47.316;-1.348;2022-08-16T01:44:31;13.57;;;9.17;;
4686;SDS011;2357;47.316;-1.348;2022-08-16T01:46:57;13.13;;;8.80;;
4686;SDS011;2357;47.316;-1.348;2022-08-16T01:49:28;16.03;;;9.13;;
4686;SDS011;2357;47.316;-1.348;2022-08-16T01:52:08;14.03;;;10.57;;
4686;SDS011;2357;47.316;-1.348;2022-08-16T01:54:36;15.90;;;8.87;;
4686;SDS011;2357;47.316;-1.348;2022-08-16T01:57:02;15.40;;;9.20;;
4686;SDS011;2357;47.316;-1.348;2022-08-16T01:59:29;23.33;;;10.23;;
4686;SDS011;2357;47.316;-1.348;2022-08-16T02:01:54;15.60;;;9.53;;
4686;SDS011;2357;47.316;-1.348;2022-08-16T02:04:21;20.33;;;10.60;;
4686;SDS011;2357;47.316;-1.348;2022-08-16T02:06:48;16.83;;;10.03;;
4686;SDS011;2357;47.316;-1.348;2022-08-16T02:09:15;13.97;;;10.30;;
4686;SDS011;2357;47.316;-1.348;2022-08-16T02:11:44;14.53;;;10.23;;
4686;SDS011;2357;47.316;-1.348;2022-08-16T02:14:13;16.50;;;10.70;;
4686;SDS011;2357;47.316;-1.348;2022-08-16T02:16:39;14.13;;;10.10;;
4686;SDS011;2357;47.316;-1.348;2022-08-16T02:19:08;16.60;;;9.87;;
4686;SDS011;2357;47.316;-1.348;2022-08-16T02:21:35;15.67;;;10.93;;
4686;SDS011;2357;47.316;-1.348;2022-08-16T02:24:00;23.67;;;11.30;;
4686;SDS011;2357;47.316;-1.348;2022-08-16T02:26:26;22.43;;;11.60;;
4686;SDS011;2357;47.316;-1.348;2022-08-16T02:28:52;13.50;;;9.03;;
4686;SDS011;2357;47.316;-1.348;2022-08-16T02:31:18;14.70;;;9.50;;
4686;SDS011;2357;47.316;-1.348;2022-08-16T02:33:43;14.57;;;10.40;;
4686;SDS011;2357;47.316;-1.348;2022-08-16T02:36:10;21.33;;;10.67;;
4686;SDS011;2357;47.316;-1.348;2022-08-16T02:38:36;14.40;;;10.90;;
4686;SDS011;2357;47.316;-1.348;2022-08-16T02:41:03;17.90;;;10.47;;
4686;SDS011;2357;47.316;-1.348;2022-08-16T02:43:31;17.00;;;10.63;;
4686;SDS011;2357;47.316;-1.348;2022-08-16T02:45:58;10.83;;;9.83;;
4686;SDS011;2357;47.316;-1.348;2022-08-16T02:48:24;21.10;;;10.33;;
4686;SDS011;2357;47.316;-1.348;2022-08-16T02:50:50;21.53;;;10.30;;
4686;SDS011;2357;47.316;-1.348;2022-08-16T02:53:16;15.77;;;8.70;;
4686;SDS011;2357;47.316;-1.348;2022-08-16T02:55:42;11.83;;;8.77;;
4686;SDS011;2357;47.316;-1.348;2022-08-16T02:58:07;15.17;;;9.07;;
4686;SDS011;2357;47.316;-1.348;2022-08-16T03:00:33;12.93;;;9.40;;
4686;SDS011;2357;47.316;-1.348;2022-08-16T03:02:59;15.63;;;10.87;;
4686;SDS011;2357;47.316;-1.348;2022-08-16T03:05:25;29.03;;;12.20;;
4686;SDS011;2357;47.316;-1.348;2022-08-16T03:07:51;17.03;;;10.23;;
4686;SDS011;2357;47.316;-1.348;2022-08-16T03:10:17;23.80;;;11.10;;
4686;SDS011;2357;47.316;-1.348;2022-08-16T03:12:43;23.10;;;10.07;;
4686;SDS011;2357;47.316;-1.348;2022-08-16T03:15:11;20.83;;;11.17;;
4686;SDS011;2357;47.316;-1.348;2022-08-16T03:17:39;21.30;;;10.10;;
4686;SDS011;2357;47.316;-1.348;2022-08-16T03:20:07;19.80;;;10.83;;
4686;SDS011;2357;47.316;-1.348;2022-08-16T03:22:33;12.13;;;9.47;;
4686;SDS011;2357;47.316;-1.348;2022-08-16T03:25:00;19.80;;;9.77;;
4686;SDS011;2357;47.316;-1.348;2022-08-16T03:27:31;20.47;;;9.60;;
4686;SDS011;2357;47.316;-1.348;2022-08-16T03:30:01;20.37;;;10.73;;
4686;SDS011;2357;47.316;-1.348;2022-08-16T03:32:30;15.90;;;9.50;;
4686;SDS011;2357;47.316;-1.348;2022-08-16T03:34:55;13.77;;;9.23;;
4686;SDS011;2357;47.316;-1.348;2022-08-16T03:37:21;19.20;;;10.60;;
4686;SDS011;2357;47.316;-1.348;2022-08-16T03:39:46;18.73;;;9.63;;
4686;SDS011;2357;47.316;-1.348;2022-08-16T03:42:12;16.50;;;9.47;;
4686;SDS011;2357;47.316;-1.348;2022-08-16T03:44:38;16.70;;;9.67;;
4686;SDS011;2357;47.316;-1.348;2022-08-16T03:47:05;26.57;;;11.37;;
4686;SDS011;2357;47.316;-1.348;2022-08-16T03:49:30;16.80;;;9.23;;
4686;SDS011;2357;47.316;-1.348;2022-08-16T03:51:56;15.73;;;9.47;;
4686;SDS011;2357;47.316;-1.348;2022-08-16T03:54:22;51.97;;;12.17;;
4686;SDS011;2357;47.316;-1.348;2022-08-16T03:56:48;16.90;;;9.43;;
4686;SDS011;2357;47.316;-1.348;2022-08-16T03:59:13;16.57;;;9.90;;
4686;SDS011;2357;47.316;-1.348;2022-08-16T04:01:39;13.55;;;9.45;;
4686;SDS011;2357;47.316;-1.348;2022-08-16T04:04:05;20.03;;;10.10;;
4686;SDS011;2357;47.316;-1.348;2022-08-16T04:06:31;21.33;;;10.27;;
4686;SDS011;2357;47.316;-1.348;2022-08-16T04:08:57;20.33;;;11.37;;
4686;SDS011;2357;47.316;-1.348;2022-08-16T04:11:22;17.47;;;10.83;;
4686;SDS011;2357;47.316;-1.348;2022-08-16T04:13:48;19.03;;;11.23;;
4686;SDS011;2357;47.316;-1.348;2022-08-16T04:16:13;23.13;;;11.70;;
4686;SDS011;2357;47.316;-1.348;2022-08-16T04:18:41;23.90;;;10.63;;
4686;SDS011;2357;47.316;-1.348;2022-08-16T04:21:07;17.20;;;10.33;;
4686;SDS011;2357;47.316;-1.348;2022-08-16T04:23:33;21.87;;;11.63;;
4686;SDS011;2357;47.316;-1.348;2022-08-16T04:26:02;18.83;;;10.03;;
4686;SDS011;2357;47.316;-1.348;2022-08-16T04:28:29;19.63;;;11.03;;
4686;SDS011;2357;47.316;-1.348;2022-08-16T04:30:55;15.10;;;9.90;;
4686;SDS011;2357;47.316;-1.348;2022-08-16T04:33:20;25.00;;;10.50;;
4686;SDS011;2357;47.316;-1.348;2022-08-16T04:35:46;15.60;;;11.57;;
4686;SDS011;2357;47.316;-1.348;2022-08-16T04:38:12;16.40;;;10.07;;
4686;SDS011;2357;47.316;-1.348;2022-08-16T04:40:39;15.13;;;10.27;;
4686;SDS011;2357;47.316;-1.348;2022-08-16T04:43:05;19.97;;;9.60;;
4686;SDS011;2357;47.316;-1.348;2022-08-16T04:45:30;20.63;;;10.57;;
4686;SDS011;2357;47.316;-1.348;2022-08-16T04:47:56;19.40;;;10.50;;
4686;SDS011;2357;47.316;-1.348;2022-08-16T04:50:23;15.73;;;11.60;;
4686;SDS011;2357;47.316;-1.348;2022-08-16T04:52:52;28.00;;;12.03;;
4686;SDS011;2357;47.316;-1.348;2022-08-16T04:55:19;25.53;;;11.33;;
4686;SDS011;2357;47.316;-1.348;2022-08-16T04:57:48;23.70;;;12.00;;
4686;SDS011;2357;47.316;-1.348;2022-08-16T05:00:16;22.97;;;11.00;;
4686;SDS011;2357;47.316;-1.348;2022-08-16T05:02:44;19.47;;;10.90;;
4686;SDS011;2357;47.316;-1.348;2022-08-16T05:05:12;20.87;;;10.47;;
4686;SDS011;2357;47.316;-1.348;2022-08-16T05:07:38;23.90;;;10.53;;
4686;SDS011;2357;47.316;-1.348;2022-08-16T05:10:05;17.63;;;10.40;;
4686;SDS011;2357;47.316;-1.348;2022-08-16T05:12:33;24.60;;;10.90;;
4686;SDS011;2357;47.316;-1.348;2022-08-16T05:14:59;18.37;;;9.93;;
4686;SDS011;2357;47.316;-1.348;2022-08-16T05:17:25;15.67;;;9.70;;
4686;SDS011;2357;47.316;-1.348;2022-08-16T05:19:50;23.57;;;9.60;;
4686;SDS011;2357;47.316;-1.348;2022-08-16T05:22:16;20.73;;;8.80;;
4686;SDS011;2357;47.316;-1.348;2022-08-16T05:24:42;24.03;;;9.30;;
4686;SDS011;2357;47.316;-1.348;2022-08-16T05:27:08;17.67;;;9.03;;
4686;SDS011;2357;47.316;-1.348;2022-08-16T05:29:34;13.30;;;7.43;;
4686;SDS011;2357;47.316;-1.348;2022-08-16T05:31:59;17.60;;;7.90;;
4686;SDS011;2357;47.316;-1.348;2022-08-16T05:34:25;13.40;;;8.70;;
4686;SDS011;2357;47.316;-1.348;2022-08-16T05:36:52;16.37;;;8.20;;
4686;SDS011;2357;47.316;-1.348;2022-08-16T05:39:21;14.83;;;7.90;;
4686;SDS011;2357;47.316;-1.348;2022-08-16T05:41:48;19.00;;;8.13;;
4686;SDS011;2357;47.316;-1.348;2022-08-16T05:44:14;16.57;;;8.13;;
4686;SDS011;2357;47.316;-1.348;2022-08-16T05:46:40;17.37;;;7.40;;
4686;SDS011;2357;47.316;-1.348;2022-08-16T05:49:08;14.47;;;7.50;;
4686;SDS011;2357;47.316;-1.348;2022-08-16T05:51:37;10.43;;;7.90;;
4686;SDS011;2357;47.316;-1.348;2022-08-16T05:54:02;16.37;;;8.07;;
4686;SDS011;2357;47.316;-1.348;2022-08-16T05:56:28;24.87;;;8.33;;
4686;SDS011;2357;47.316;-1.348;2022-08-16T05:58:54;22.27;;;7.83;;
4686;SDS011;2357;47.316;-1.348;2022-08-16T06:01:20;15.93;;;8.20;;
4686;SDS011;2357;47.316;-1.348;2022-08-16T06:03:46;23.63;;;7.40;;
4686;SDS011;2357;47.316;-1.348;2022-08-16T06:06:11;18.90;;;7.77;;
4686;SDS011;2357;47.316;-1.348;2022-08-16T06:08:37;14.17;;;7.70;;
4686;SDS011;2357;47.316;-1.348;2022-08-16T06:11:03;21.30;;;7.87;;
4686;SDS011;2357;47.316;-1.348;2022-08-16T06:13:29;12.53;;;8.17;;
4686;SDS011;2357;47.316;-1.348;2022-08-16T06:15:55;19.70;;;8.50;;
4686;SDS011;2357;47.316;-1.348;2022-08-16T06:18:21;21.63;;;9.10;;
4686;SDS011;2357;47.316;-1.348;2022-08-16T06:20:47;15.70;;;7.93;;
4686;SDS011;2357;47.316;-1.348;2022-08-16T06:23:12;18.43;;;8.20;;
4686;SDS011;2357;47.316;-1.348;2022-08-16T06:25:38;16.13;;;8.40;;
4686;SDS011;2357;47.316;-1.348;2022-08-16T06:28:04;19.03;;;7.70;;
4686;SDS011;2357;47.316;-1.348;2022-08-16T06:30:34;11.43;;;8.27;;
4686;SDS011;2357;47.316;-1.348;2022-08-16T06:33:00;15.57;;;9.47;;
4686;SDS011;2357;47.316;-1.348;2022-08-16T06:35:27;14.00;;;8.50;;
4686;SDS011;2357;47.316;-1.348;2022-08-16T06:37:52;24.77;;;9.93;;
4686;SDS011;2357;47.316;-1.348;2022-08-16T06:40:18;13.23;;;8.87;;
4686;SDS011;2357;47.316;-1.348;2022-08-16T06:42:44;11.87;;;8.07;;
4686;SDS011;2357;47.316;-1.348;2022-08-16T06:45:09;25.97;;;9.27;;
4686;SDS011;2357;47.316;-1.348;2022-08-16T06:47:35;12.97;;;8.23;;
4686;SDS011;2357;47.316;-1.348;2022-08-16T06:50:01;21.63;;;9.70;;
4686;SDS011;2357;47.316;-1.348;2022-08-16T06:52:27;21.33;;;10.37;;
4686;SDS011;2357;47.316;-1.348;2022-08-16T06:55:00;20.07;;;9.40;;
4686;SDS011;2357;47.316;-1.348;2022-08-16T06:57:26;23.20;;;9.93;;
4686;SDS011;2357;47.316;-1.348;2022-08-16T06:59:51;16.47;;;8.20;;
4686;SDS011;2357;47.316;-1.348;2022-08-16T07:02:17;12.47;;;7.93;;
4686;SDS011;2357;47.316;-1.348;2022-08-16T07:04:43;15.87;;;8.57;;
4686;SDS011;2357;47.316;-1.348;2022-08-16T07:07:09;19.40;;;9.00;;
4686;SDS011;2357;47.316;-1.348;2022-08-16T07:09:34;15.03;;;8.50;;
4686;SDS011;2357;47.316;-1.348;2022-08-16T07:12:01;14.43;;;9.40;;
4686;SDS011;2357;47.316;-1.348;2022-08-16T07:14:26;15.63;;;9.90;;
4686;SDS011;2357;47.316;-1.348;2022-08-16T07:16:53;18.63;;;8.13;;
4686;SDS011;2357;47.316;-1.348;2022-08-16T07:19:21;19.57;;;9.20;;
4686;SDS011;2357;47.316;-1.348;2022-08-16T07:21:46;20.33;;;9.67;;
4686;SDS011;2357;47.316;-1.348;2022-08-16T07:24:12;17.13;;;8.53;;
4686;SDS011;2357;47.316;-1.348;2022-08-16T07:26:38;12.60;;;9.10;;
4686;SDS011;2357;47.316;-1.348;2022-08-16T07:29:04;22.03;;;10.60;;
4686;SDS011;2357;47.316;-1.348;2022-08-16T07:31:29;15.30;;;8.27;;
4686;SDS011;2357;47.316;-1.348;2022-08-16T07:33:56;17.03;;;8.30;;
4686;SDS011;2357;47.316;-1.348;2022-08-16T07:36:21;22.17;;;9.23;;
4686;SDS011;2357;47.316;-1.348;2022-08-16T07:38:47;14.50;;;8.50;;
4686;SDS011;2357;47.316;-1.348;2022-08-16T07:41:14;21.60;;;8.80;;
4686;SDS011;2357;47.316;-1.348;2022-08-16T07:43:39;18.30;;;8.20;;
4686;SDS011;2357;47.316;-1.348;2022-08-16T07:46:05;10.53;;;8.37;;
4686;SDS011;2357;47.316;-1.348;2022-08-16T07:48:31;13.60;;;8.90;;
4686;SDS011;2357;47.316;-1.348;2022-08-16T07:50:56;14.50;;;7.90;;
4686;SDS011;2357;47.316;-1.348;2022-08-16T07:53:22;11.95;;;8.05;;
4686;SDS011;2357;47.316;-1.348;2022-08-16T07:55:48;13.60;;;7.67;;
4686;SDS011;2357;47.316;-1.348;2022-08-16T07:58:14;13.83;;;8.13;;
4686;SDS011;2357;47.316;-1.348;2022-08-16T08:00:41;11.43;;;6.93;;
4686;SDS011;2357;47.316;-1.348;2022-08-16T08:03:06;10.13;;;7.13;;
4686;SDS011;2357;47.316;-1.348;2022-08-16T08:05:33;9.83;;;6.47;;
4686;SDS011;2357;47.316;-1.348;2022-08-16T08:07:58;14.23;;;7.17;;
4686;SDS011;2357;47.316;-1.348;2022-08-16T08:10:24;10.20;;;6.40;;
4686;SDS011;2357;47.316;-1.348;2022-08-16T08:12:51;14.03;;;7.10;;
4686;SDS011;2357;47.316;-1.348;2022-08-16T08:15:18;19.70;;;7.97;;
4686;SDS011;2357;47.316;-1.348;2022-08-16T08:17:44;15.53;;;7.40;;
4686;SDS011;2357;47.316;-1.348;2022-08-16T08:20:11;12.10;;;7.23;;
4686;SDS011;2357;47.316;-1.348;2022-08-16T08:22:39;18.97;;;7.57;;
4686;SDS011;2357;47.316;-1.348;2022-08-16T08:25:05;12.40;;;6.50;;
4686;SDS011;2357;47.316;-1.348;2022-08-16T08:27:32;11.37;;;6.97;;
4686;SDS011;2357;47.316;-1.348;2022-08-16T08:29:58;10.73;;;7.07;;
4686;SDS011;2357;47.316;-1.348;2022-08-16T08:32:24;13.03;;;7.20;;
4686;SDS011;2357;47.316;-1.348;2022-08-16T08:34:52;10.83;;;6.63;;
4686;SDS011;2357;47.316;-1.348;2022-08-16T08:37:18;14.60;;;6.60;;
4686;SDS011;2357;47.316;-1.348;2022-08-16T08:39:45;18.40;;;7.10;;
4686;SDS011;2357;47.316;-1.348;2022-08-16T08:42:11;12.63;;;6.67;;
4686;SDS011;2357;47.316;-1.348;2022-08-16T08:44:39;10.40;;;6.57;;
4686;SDS011;2357;47.316;-1.348;2022-08-16T08:47:05;10.83;;;7.10;;
4686;SDS011;2357;47.316;-1.348;2022-08-16T08:49:32;12.03;;;6.63;;
4686;SDS011;2357;47.316;-1.348;2022-08-16T08:51:58;14.93;;;6.80;;
4686;SDS011;2357;47.316;-1.348;2022-08-16T08:54:24;10.10;;;6.33;;
4686;SDS011;2357;47.316;-1.348;2022-08-16T08:56:50;9.73;;;5.83;;
4686;SDS011;2357;47.316;-1.348;2022-08-16T08:59:17;16.10;;;6.40;;
4686;SDS011;2357;47.316;-1.348;2022-08-16T09:01:43;12.30;;;5.10;;
4686;SDS011;2357;47.316;-1.348;2022-08-16T09:04:09;7.30;;;5.73;;
4686;SDS011;2357;47.316;-1.348;2022-08-16T09:06:35;6.43;;;5.20;;
4686;SDS011;2357;47.316;-1.348;2022-08-16T09:09:03;15.50;;;5.13;;
4686;SDS011;2357;47.316;-1.348;2022-08-16T09:11:29;8.60;;;4.80;;
4686;SDS011;2357;47.316;-1.348;2022-08-16T09:13:55;14.07;;;5.23;;
4686;SDS011;2357;47.316;-1.348;2022-08-16T09:16:21;6.00;;;5.13;;
4686;SDS011;2357;47.316;-1.348;2022-08-16T09:18:47;5.37;;;4.40;;
4686;SDS011;2357;47.316;-1.348;2022-08-16T09:21:13;11.13;;;4.23;;
4686;SDS011;2357;47.316;-1.348;2022-08-16T09:23:39;14.07;;;6.33;;
4686;SDS011;2357;47.316;-1.348;2022-08-16T09:26:06;9.53;;;4.20;;
4686;SDS011;2357;47.316;-1.348;2022-08-16T09:28:35;5.90;;;4.13;;
4686;SDS011;2357;47.316;-1.348;2022-08-16T09:31:01;7.10;;;3.83;;
4686;SDS011;2357;47.316;-1.348;2022-08-16T09:33:28;5.97;;;4.50;;
4686;SDS011;2357;47.316;-1.348;2022-08-16T09:35:55;7.57;;;3.50;;
4686;SDS011;2357;47.316;-1.348;2022-08-16T09:38:22;7.10;;;4.50;;
4686;SDS011;2357;47.316;-1.348;2022-08-16T09:40:48;7.00;;;4.43;;
4686;SDS011;2357;47.316;-1.348;2022-08-16T09:43:16;16.33;;;4.93;;
4686;SDS011;2357;47.316;-1.348;2022-08-16T09:45:44;6.97;;;4.20;;
4686;SDS011;2357;47.316;-1.348;2022-08-16T09:48:11;5.00;;;3.97;;
4686;SDS011;2357;47.316;-1.348;2022-08-16T09:50:38;7.00;;;4.10;;
4686;SDS011;2357;47.316;-1.348;2022-08-16T09:53:12;4.40;;;3.90;;
4686;SDS011;2357;47.316;-1.348;2022-08-16T09:55:40;6.90;;;3.97;;
4686;SDS011;2357;47.316;-1.348;2022-08-16T09:58:07;9.07;;;4.70;;
4686;SDS011;2357;47.316;-1.348;2022-08-16T10:00:33;10.70;;;4.83;;
4686;SDS011;2357;47.316;-1.348;2022-08-16T10:02:58;6.87;;;4.17;;
4686;SDS011;2357;47.316;-1.348;2022-08-16T10:05:25;7.78;;;4.30;;
4686;SDS011;2357;47.316;-1.348;2022-08-16T10:07:51;12.63;;;4.70;;
4686;SDS011;2357;47.316;-1.348;2022-08-16T10:10:18;6.20;;;4.17;;
4686;SDS011;2357;47.316;-1.348;2022-08-16T10:12:44;8.10;;;4.20;;
4686;SDS011;2357;47.316;-1.348;2022-08-16T10:15:48;12.43;;;5.30;;
4686;SDS011;2357;47.316;-1.348;2022-08-16T10:18:19;9.40;;;5.03;;
4686;SDS011;2357;47.316;-1.348;2022-08-16T10:20:45;12.97;;;4.63;;
4686;SDS011;2357;47.316;-1.348;2022-08-16T10:23:12;10.37;;;6.03;;
4686;SDS011;2357;47.316;-1.348;2022-08-16T10:25:40;16.50;;;7.40;;
4686;SDS011;2357;47.316;-1.348;2022-08-16T10:28:08;12.90;;;6.40;;
4686;SDS011;2357;47.316;-1.348;2022-08-16T10:30:35;14.57;;;5.90;;
4686;SDS011;2357;47.316;-1.348;2022-08-16T10:33:01;8.77;;;5.97;;
4686;SDS011;2357;47.316;-1.348;2022-08-16T10:35:28;15.87;;;4.50;;
4686;SDS011;2357;47.316;-1.348;2022-08-16T10:37:53;5.80;;;3.83;;
4686;SDS011;2357;47.316;-1.348;2022-08-16T10:40:19;6.70;;;3.53;;
4686;SDS011;2357;47.316;-1.348;2022-08-16T10:42:45;10.90;;;4.53;;
4686;SDS011;2357;47.316;-1.348;2022-08-16T10:45:13;9.63;;;3.97;;
4686;SDS011;2357;47.316;-1.348;2022-08-16T10:47:40;7.77;;;3.43;;
4686;SDS011;2357;47.316;-1.348;2022-08-16T10:50:06;7.20;;;3.53;;
4686;SDS011;2357;47.316;-1.348;2022-08-16T10:52:33;7.83;;;3.50;;
4686;SDS011;2357;47.316;-1.348;2022-08-16T10:54:59;7.97;;;3.00;;
4686;SDS011;2357;47.316;-1.348;2022-08-16T10:57:26;3.00;;;2.80;;
4686;SDS011;2357;47.316;-1.348;2022-08-16T10:59:53;7.88;;;2.90;;
4686;SDS011;2357;47.316;-1.348;2022-08-16T11:02:20;6.00;;;3.17;;
4686;SDS011;2357;47.316;-1.348;2022-08-16T11:04:46;5.90;;;3.40;;
4686;SDS011;2357;47.316;-1.348;2022-08-16T11:07:12;10.47;;;3.23;;
4686;SDS011;2357;47.316;-1.348;2022-08-16T11:09:38;6.53;;;3.47;;
4686;SDS011;2357;47.316;-1.348;2022-08-16T11:12:04;8.33;;;3.97;;
4686;SDS011;2357;47.316;-1.348;2022-08-16T11:14:31;3.33;;;2.90;;
4686;SDS011;2357;47.316;-1.348;2022-08-16T11:16:58;2.97;;;2.77;;
4686;SDS011;2357;47.316;-1.348;2022-08-16T11:19:26;4.83;;;2.57;;
4686;SDS011;2357;47.316;-1.348;2022-08-16T11:21:52;3.23;;;2.50;;
4686;SDS011;2357;47.316;-1.348;2022-08-16T11:24:17;3.57;;;2.93;;
4686;SDS011;2357;47.316;-1.348;2022-08-16T11:26:43;5.07;;;2.70;;
4686;SDS011;2357;47.316;-1.348;2022-08-16T11:29:09;7.00;;;2.10;;
4686;SDS011;2357;47.316;-1.348;2022-08-16T11:31:34;3.10;;;2.43;;
4686;SDS011;2357;47.316;-1.348;2022-08-16T11:34:00;4.20;;;2.67;;
4686;SDS011;2357;47.316;-1.348;2022-08-16T11:36:26;2.07;;;1.87;;
4686;SDS011;2357;47.316;-1.348;2022-08-16T11:38:53;8.40;;;1.83;;
4686;SDS011;2357;47.316;-1.348;2022-08-16T11:41:19;3.27;;;1.73;;
4686;SDS011;2357;47.316;-1.348;2022-08-16T11:43:45;3.57;;;1.53;;
4686;SDS011;2357;47.316;-1.348;2022-08-16T11:46:12;4.73;;;1.23;;
4686;SDS011;2357;47.316;-1.348;2022-08-16T11:48:41;1.50;;;1.20;;
4686;SDS011;2357;47.316;-1.348;2022-08-16T11:51:09;1.67;;;1.30;;
4686;SDS011;2357;47.316;-1.348;2022-08-16T11:53:35;4.10;;;1.43;;
4686;SDS011;2357;47.316;-1.348;2022-08-16T11:56:01;1.43;;;1.33;;
4686;SDS011;2357;47.316;-1.348;2022-08-16T11:58:28;1.67;;;1.57;;
4686;SDS011;2357;47.316;-1.348;2022-08-16T12:00:55;1.47;;;1.37;;
4686;SDS011;2357;47.316;-1.348;2022-08-16T12:03:24;4.07;;;1.67;;
4686;SDS011;2357;47.316;-1.348;2022-08-16T12:05:51;3.00;;;1.40;;
4686;SDS011;2357;47.316;-1.348;2022-08-16T12:08:17;3.73;;;1.57;;
4686;SDS011;2357;47.316;-1.348;2022-08-16T12:10:43;1.97;;;1.40;;
4686;SDS011;2357;47.316;-1.348;2022-08-16T12:13:10;0.80;;;0.80;;
4686;SDS011;2357;47.316;-1.348;2022-08-16T12:15:35;1.70;;;1.23;;
4686;SDS011;2357;47.316;-1.348;2022-08-16T12:18:02;1.37;;;0.90;;
4686;SDS011;2357;47.316;-1.348;2022-08-16T12:20:29;4.13;;;1.70;;
4686;SDS011;2357;47.316;-1.348;2022-08-16T12:22:56;2.70;;;0.87;;
4686;SDS011;2357;47.316;-1.348;2022-08-16T12:25:23;2.30;;;1.00;;
4686;SDS011;2357;47.316;-1.348;2022-08-16T12:27:50;1.17;;;1.03;;
4686;SDS011;2357;47.316;-1.348;2022-08-16T12:30:18;2.20;;;1.00;;
4686;SDS011;2357;47.316;-1.348;2022-08-16T12:32:46;2.40;;;1.40;;
4686;SDS011;2357;47.316;-1.348;2022-08-16T12:35:14;3.73;;;1.10;;
4686;SDS011;2357;47.316;-1.348;2022-08-16T12:37:43;1.27;;;1.13;;
4686;SDS011;2357;47.316;-1.348;2022-08-16T12:40:12;2.47;;;1.50;;
4686;SDS011;2357;47.316;-1.348;2022-08-16T12:42:40;1.03;;;0.90;;
4686;SDS011;2357;47.316;-1.348;2022-08-16T12:45:08;1.03;;;1.00;;
4686;SDS011;2357;47.316;-1.348;2022-08-16T12:47:35;2.37;;;1.30;;
4686;SDS011;2357;47.316;-1.348;2022-08-16T12:50:20;1.53;;;1.00;;
4686;SDS011;2357;47.316;-1.348;2022-08-16T12:52:46;3.77;;;1.17;;
4686;SDS011;2357;47.316;-1.348;2022-08-16T12:55:12;0.90;;;0.90;;
4686;SDS011;2357;47.316;-1.348;2022-08-16T12:57:38;3.97;;;1.10;;
4686;SDS011;2357;47.316;-1.348;2022-08-16T13:00:10;1.23;;;1.07;;
4686;SDS011;2357;47.316;-1.348;2022-08-16T13:02:40;2.03;;;0.80;;
4686;SDS011;2357;47.316;-1.348;2022-08-16T13:05:07;0.90;;;0.90;;
4686;SDS011;2357;47.316;-1.348;2022-08-16T13:07:32;1.70;;;0.80;;
4686;SDS011;2357;47.316;-1.348;2022-08-16T13:09:59;1.17;;;0.90;;
4686;SDS011;2357;47.316;-1.348;2022-08-16T13:12:33;1.23;;;1.13;;
4686;SDS011;2357;47.316;-1.348;2022-08-16T13:15:03;2.63;;;1.20;;
4686;SDS011;2357;47.316;-1.348;2022-08-16T13:17:32;1.10;;;0.63;;
4686;SDS011;2357;47.316;-1.348;2022-08-16T13:19:58;1.10;;;0.80;;
4686;SDS011;2357;47.316;-1.348;2022-08-16T13:22:25;1.07;;;0.90;;
4686;SDS011;2357;47.316;-1.348;2022-08-16T13:24:51;5.60;;;0.73;;
4686;SDS011;2357;47.316;-1.348;2022-08-16T13:27:18;3.13;;;0.70;;
4686;SDS011;2357;47.316;-1.348;2022-08-16T13:29:43;2.27;;;1.00;;
4686;SDS011;2357;47.316;-1.348;2022-08-16T13:32:09;1.00;;;0.60;;
4686;SDS011;2357;47.316;-1.348;2022-08-16T13:34:35;1.35;;;0.80;;
4686;SDS011;2357;47.316;-1.348;2022-08-16T13:37:01;0.60;;;0.60;;
4686;SDS011;2357;47.316;-1.348;2022-08-16T13:39:27;1.17;;;0.70;;
4686;SDS011;2357;47.316;-1.348;2022-08-16T13:41:55;3.33;;;0.60;;
4686;SDS011;2357;47.316;-1.348;2022-08-16T13:44:21;2.60;;;0.90;;
4686;SDS011;2357;47.316;-1.348;2022-08-16T13:46:47;1.87;;;0.60;;
4686;SDS011;2357;47.316;-1.348;2022-08-16T13:49:13;1.40;;;0.63;;
4686;SDS011;2357;47.316;-1.348;2022-08-16T13:51:40;1.13;;;0.80;;
4686;SDS011;2357;47.316;-1.348;2022-08-16T13:54:06;1.07;;;0.70;;
4686;SDS011;2357;47.316;-1.348;2022-08-16T13:56:33;0.80;;;0.80;;
4686;SDS011;2357;47.316;-1.348;2022-08-16T13:58:59;0.80;;;0.80;;
4686;SDS011;2357;47.316;-1.348;2022-08-16T14:01:25;1.43;;;0.80;;
4686;SDS011;2357;47.316;-1.348;2022-08-16T14:03:51;0.90;;;0.90;;
4686;SDS011;2357;47.316;-1.348;2022-08-16T14:06:18;1.27;;;1.10;;
4686;SDS011;2357;47.316;-1.348;2022-08-16T14:08:44;2.03;;;1.20;;
4686;SDS011;2357;47.316;-1.348;2022-08-16T14:11:10;1.23;;;1.10;;
4686;SDS011;2357;47.316;-1.348;2022-08-16T14:13:37;1.97;;;1.00;;
4686;SDS011;2357;47.316;-1.348;2022-08-16T14:16:03;7.53;;;1.20;;
4686;SDS011;2357;47.316;-1.348;2022-08-16T14:18:29;4.83;;;1.23;;
4686;SDS011;2357;47.316;-1.348;2022-08-16T14:20:55;1.20;;;1.10;;
4686;SDS011;2357;47.316;-1.348;2022-08-16T14:23:22;1.00;;;0.90;;
4686;SDS011;2357;47.316;-1.348;2022-08-16T14:25:47;1.20;;;1.10;;
4686;SDS011;2357;47.316;-1.348;2022-08-16T14:28:13;7.13;;;1.83;;
4686;SDS011;2357;47.316;-1.348;2022-08-16T14:30:39;1.63;;;1.37;;
4686;SDS011;2357;47.316;-1.348;2022-08-16T14:33:05;3.67;;;1.23;;
4686;SDS011;2357;47.316;-1.348;2022-08-16T14:35:31;3.50;;;1.67;;
4686;SDS011;2357;47.316;-1.348;2022-08-16T14:37:58;1.50;;;1.40;;
4686;SDS011;2357;47.316;-1.348;2022-08-16T14:40:25;1.50;;;1.40;;
4686;SDS011;2357;47.316;-1.348;2022-08-16T14:42:51;8.47;;;1.37;;
4686;SDS011;2357;47.316;-1.348;2022-08-16T14:45:18;3.03;;;1.23;;
4686;SDS011;2357;47.316;-1.348;2022-08-16T14:47:46;3.53;;;2.20;;
4686;SDS011;2357;47.316;-1.348;2022-08-16T14:50:13;4.47;;;1.30;;
4686;SDS011;2357;47.316;-1.348;2022-08-16T14:52:41;2.72;;;1.40;;